Time;durP1;ratioP1;P1;durP2;ratioP2;P2;SDS_P1;SDS_P2;PMS_P1;PMS_P2;Temp;Humidity;BMP_temperature;BMP_pressure;BME280_temperature;BME280_humidity;BME280_pressure;Samples;Min_cycle;Max_cycle;Signal;HPM_P1;HPM_P2
2024/03/04 00:01:54;;;;;;;50.00;25.73;;;;;;;11.52;100.00;99710.47;5097216;28;20040;-62
2024/03/04 00:04:20;;;;;;;52.90;26.10;;;;;;;11.48;100.00;99711.81;5097562;28;20078;-63
2024/03/04 00:06:45;;;;;;;47.97;25.83;;;;;;;11.43;100.00;99714.13;5097619;28;20222;-64
2024/03/04 00:09:11;;;;;;;40.97;23.67;;;;;;;11.22;100.00;99705.84;5096572;28;20047;-64
2024/03/04 00:11:36;;;;;;;45.65;23.42;;;;;;;11.17;100.00;99701.06;5096657;28;20071;-62
2024/03/04 00:14:02;;;;;;;41.28;23.50;;;;;;;11.03;100.00;99698.25;5096920;28;20221;-62
2024/03/04 00:16:29;;;;;;;48.90;23.30;;;;;;;10.81;100.00;99697.91;5096968;28;20074;-61
2024/03/04 00:18:56;;;;;;;45.50;24.70;;;;;;;10.61;100.00;99693.94;5097331;28;20273;-61
2024/03/04 00:21:22;;;;;;;51.03;26.58;;;;;;;10.76;100.00;99696.75;5097018;28;20089;-62
2024/03/04 00:23:48;;;;;;;54.20;28.27;;;;;;;10.76;100.00;99694.09;5097474;28;20148;-61
2024/03/04 00:26:14;;;;;;;53.03;29.30;;;;;;;10.90;100.00;99703.22;5096540;28;20325;-61
2024/03/04 00:28:39;;;;;;;49.88;27.25;;;;;;;10.86;100.00;99702.72;5096664;28;20059;-63
2024/03/04 00:31:05;;;;;;;60.08;28.23;;;;;;;10.91;100.00;99696.94;5096714;28;20047;-62
2024/03/04 00:33:31;;;;;;;54.97;28.02;;;;;;;10.55;100.00;99702.53;5096545;28;20036;-61
2024/03/04 00:35:57;;;;;;;47.17;25.60;;;;;;;10.24;100.00;99694.31;5096644;28;20063;-61
2024/03/04 00:38:22;;;;;;;52.70;25.40;;;;;;;9.87;100.00;99702.56;5097235;28;20036;-61
2024/03/04 00:40:49;;;;;;;49.28;24.55;;;;;;;9.59;100.00;99702.78;5096573;28;20043;-62
2024/03/04 00:43:14;;;;;;;46.65;23.75;;;;;;;9.68;100.00;99706.28;5095801;28;20027;-61
2024/03/04 00:45:40;;;;;;;42.35;22.35;;;;;;;9.54;100.00;99701.56;5095265;28;20342;-61
2024/03/04 00:48:06;;;;;;;40.25;20.55;;;;;;;9.40;100.00;99710.91;5097082;28;20027;-61
2024/03/04 00:50:32;;;;;;;40.60;21.20;;;;;;;9.38;100.00;99709.41;5094231;28;20061;-60
2024/03/04 00:52:58;;;;;;;40.75;20.52;;;;;;;9.21;100.00;99711.06;5094738;28;20024;-60
2024/03/04 00:55:24;;;;;;;34.35;19.27;;;;;;;9.11;100.00;99713.81;5094029;28;20035;-60
2024/03/04 00:57:50;;;;;;;39.38;19.65;;;;;;;8.96;100.00;99705.59;5096602;28;20460;-60
2024/03/04 01:00:17;;;;;;;45.47;22.48;;;;;;;8.93;100.00;99707.72;5095237;28;20065;-60
2024/03/04 01:02:46;;;;;;;46.45;22.83;;;;;;;9.02;100.00;99704.16;5096199;28;20035;-61
2024/03/04 01:05:12;;;;;;;44.03;19.92;;;;;;;8.85;100.00;99702.38;5094584;28;20378;-60
2024/03/04 01:07:37;;;;;;;38.53;19.75;;;;;;;8.97;100.00;99698.50;5096215;28;20048;-60
2024/03/04 01:10:07;;;;;;;38.90;20.13;;;;;;;8.78;100.00;99701.31;5095192;28;20095;-61
2024/03/04 01:12:32;;;;;;;43.80;20.52;;;;;;;8.71;100.00;99698.47;5095645;28;20084;-61
2024/03/04 01:14:58;;;;;;;41.03;19.27;;;;;;;8.60;100.00;99698.69;5095946;28;20049;-62
2024/03/04 01:17:24;;;;;;;45.15;21.27;;;;;;;8.55;100.00;99707.06;5095448;28;20329;-60
2024/03/04 01:19:51;;;;;;;41.47;20.75;;;;;;;8.77;100.00;99692.56;5096575;28;20098;-60
2024/03/04 01:22:17;;;;;;;44.60;22.23;;;;;;;8.68;100.00;99696.13;5095802;28;20072;-60
2024/03/04 01:24:44;;;;;;;40.88;20.13;;;;;;;8.55;100.00;99693.03;5096460;28;20036;-60
2024/03/04 01:27:13;;;;;;;46.67;23.42;;;;;;;8.52;100.00;99693.31;5094622;28;20523;-60
2024/03/04 01:29:41;;;;;;;45.50;22.50;;;;;;;8.46;100.00;99697.41;5096976;28;20031;-61
2024/03/04 01:32:09;;;;;;;53.13;25.88;;;;;;;8.52;100.00;99698.59;5095180;28;20032;-60
2024/03/04 01:34:41;;;;;;;47.90;22.23;;;;;;;8.44;100.00;99694.06;5095997;28;20074;-62
2024/03/04 01:37:09;;;;;;;44.35;21.58;;;;;;;8.39;100.00;99704.25;5094035;28;20047;-61
2024/03/04 01:39:35;;;;;;;44.22;20.30;;;;;;;8.18;100.00;99699.19;5096280;28;20043;-61
2024/03/04 01:42:01;;;;;;;44.55;20.40;;;;;;;8.07;100.00;99702.00;5094770;28;20044;-60
2024/03/04 01:44:38;;;;;;;43.53;19.90;;;;;;;8.20;100.00;99712.22;5096021;28;20256;-61
2024/03/04 01:47:10;;;;;;;40.90;20.38;;;;;;;8.25;100.00;99702.88;5094827;28;20032;-60
2024/03/04 01:49:38;;;;;;;44.70;21.10;;;;;;;8.30;100.00;99702.44;5095855;28;20329;-60
2024/03/04 01:52:05;;;;;;;43.50;21.30;;;;;;;8.34;100.00;99710.94;5095238;28;20044;-62
2024/03/04 01:54:32;;;;;;;40.17;19.90;;;;;;;8.29;100.00;99706.88;5095391;28;20206;-60
2024/03/04 01:56:58;;;;;;;40.47;18.67;;;;;;;8.12;100.00;99709.47;5095029;28;20385;-60
2024/03/04 01:59:25;;;;;;;51.00;22.17;;;;;;;8.06;100.00;99707.44;5095259;28;20101;-60
2024/03/04 02:01:51;;;;;;;43.50;21.40;;;;;;;8.04;100.00;99704.94;5095763;28;20089;-60
2024/03/04 02:04:18;;;;;;;42.63;19.65;;;;;;;8.00;100.00;99701.78;5094979;28;20214;-62
2024/03/04 02:06:44;;;;;;;40.08;19.48;;;;;;;7.88;100.00;99702.13;5096878;28;20040;-62
2024/03/04 02:09:12;;;;;;;45.33;20.88;;;;;;;7.89;100.00;99703.78;5097924;28;20060;-60
2024/03/04 02:11:38;;;;;;;48.88;20.13;;;;;;;7.84;100.00;99709.47;5099792;28;20048;-61
2024/03/04 02:14:05;;;;;;;49.30;23.83;;;;;;;7.94;100.00;99710.28;5098129;28;20047;-61
2024/03/04 02:16:31;;;;;;;51.88;22.15;;;;;;;7.81;100.00;99711.56;5099544;28;20043;-60
2024/03/04 02:18:57;;;;;;;49.17;23.15;;;;;;;7.66;100.00;99711.22;5097792;28;20062;-60
2024/03/04 02:21:26;;;;;;;49.47;22.00;;;;;;;7.80;100.00;99718.66;5099561;28;20308;-62
2024/03/04 02:23:51;;;;;;;49.25;22.65;;;;;;;7.63;100.00;99706.25;5098312;28;20027;-62
2024/03/04 02:26:17;;;;;;;52.55;22.95;;;;;;;7.53;100.00;99711.53;5098040;28;20098;-61
2024/03/04 02:28:42;;;;;;;57.85;24.00;;;;;;;7.66;100.00;99709.41;5098069;28;20036;-60
2024/03/04 02:31:10;;;;;;;57.20;24.65;;;;;;;7.86;100.00;99706.69;5098718;28;20075;-61
2024/03/04 02:33:37;;;;;;;57.05;24.40;;;;;;;7.90;100.00;99700.16;5098207;28;20031;-63
2024/03/04 02:36:04;;;;;;;49.08;23.90;;;;;;;7.95;100.00;99706.66;5097374;28;20051;-62
2024/03/04 02:38:31;;;;;;;51.13;22.20;;;;;;;8.18;100.00;99701.81;5098414;28;20305;-60
2024/03/04 02:40:59;;;;;;;56.35;24.25;;;;;;;8.36;100.00;99709.00;5098082;28;20115;-61
2024/03/04 02:43:26;;;;;;;53.92;26.42;;;;;;;8.43;100.00;99710.88;5098455;28;20032;-61
2024/03/04 02:45:52;;;;;;;50.65;24.17;;;;;;;8.40;100.00;99711.19;5098007;28;20063;-60
2024/03/04 02:48:17;;;;;;;53.70;24.20;;;;;;;8.15;100.00;99712.66;5097993;28;20329;-60
2024/03/04 02:50:43;;;;;;;50.75;23.88;;;;;;;8.14;100.00;99705.72;5097578;28;20306;-62
2024/03/04 02:53:09;;;;;;;49.17;21.65;;;;;;;8.13;100.00;99709.34;5098936;28;20024;-61
2024/03/04 02:55:37;;;;;;;51.45;22.02;;;;;;;8.27;100.00;99705.38;5097143;28;20295;-61
2024/03/04 02:58:08;;;;;;;52.60;21.77;;;;;;;8.09;100.00;99700.06;5098345;28;20058;-61
2024/03/04 03:00:34;;;;;;;49.58;20.90;;;;;;;7.99;100.00;99704.56;5096487;28;20394;-60
2024/03/04 03:03:00;;;;;;;53.88;23.88;;;;;;;7.95;100.00;99705.81;5098009;28;20032;-62
2024/03/04 03:05:27;;;;;;;55.20;22.35;;;;;;;8.01;100.00;99715.78;5095600;28;20284;-61
2024/03/04 03:07:52;;;;;;;51.83;24.27;;;;;;;8.04;100.00;99714.66;5098325;28;20055;-61
2024/03/04 03:10:18;;;;;;;54.85;24.60;;;;;;;8.00;100.00;99714.97;5096859;28;20024;-61
2024/03/04 03:12:43;;;;;;;55.97;22.92;;;;;;;8.12;100.00;99726.13;5098080;28;20059;-61
2024/03/04 03:15:09;;;;;;;57.80;23.02;;;;;;;7.85;100.00;99719.06;5097389;28;20033;-61
2024/03/04 03:17:35;;;;;;;56.00;21.48;;;;;;;7.69;100.00;99721.47;5097006;28;20052;-61
2024/03/04 03:20:12;;;;;;;61.40;24.75;;;;;;;7.52;100.00;99712.50;5097733;28;20051;-63
2024/03/04 03:22:38;;;;;;;70.63;26.77;;;;;;;7.79;100.00;99716.16;5096733;28;20032;-62
2024/03/04 03:25:04;;;;;;;59.38;25.33;;;;;;;7.66;100.00;99729.66;5097336;28;20028;-61
2024/03/04 03:27:30;;;;;;;55.97;23.58;;;;;;;7.64;100.00;99727.19;5097258;28;20111;-61
2024/03/04 03:29:55;;;;;;;45.05;20.98;;;;;;;7.59;100.00;99731.22;5097910;28;20040;-63
2024/03/04 03:32:21;;;;;;;55.95;23.85;;;;;;;7.50;100.00;99737.34;5095350;28;20024;-63
2024/03/04 03:34:46;;;;;;;51.80;22.90;;;;;;;7.30;100.00;99737.38;5098126;28;20032;-60
2024/03/04 03:37:12;;;;;;;58.38;24.83;;;;;;;7.25;100.00;99736.94;5097597;28;20046;-61
2024/03/04 03:39:38;;;;;;;51.15;23.02;;;;;;;7.13;100.00;99743.34;5098087;28;20051;-61
2024/03/04 03:42:07;;;;;;;51.33;22.73;;;;;;;7.17;100.00;99746.53;5096199;28;20345;-61
2024/03/04 03:44:33;;;;;;;51.42;22.60;;;;;;;7.09;100.00;99749.03;5097200;28;20337;-61
2024/03/04 03:46:58;;;;;;;53.03;23.13;;;;;;;7.04;100.00;99739.75;5096551;28;20043;-61
2024/03/04 03:49:24;;;;;;;52.05;22.23;;;;;;;7.02;100.00;99749.56;5097479;28;20055;-63
2024/03/04 03:51:49;;;;;;;65.43;25.15;;;;;;;7.07;100.00;99736.00;5096783;28;20040;-62
2024/03/04 03:54:15;;;;;;;58.38;23.55;;;;;;;7.36;100.00;99750.00;5096643;28;20050;-61
2024/03/04 03:56:41;;;;;;;60.42;24.48;;;;;;;7.44;100.00;99759.00;5096872;28;20111;-61
2024/03/04 03:59:06;;;;;;;57.42;24.70;;;;;;;7.57;100.00;99755.06;5096487;28;20031;-61
2024/03/04 04:01:32;;;;;;;54.55;23.10;;;;;;;7.59;100.00;99754.94;5096577;28;20035;-63
2024/03/04 04:03:57;;;;;;;58.88;23.92;;;;;;;7.56;100.00;99750.78;5095821;28;20069;-64
2024/03/04 04:06:23;;;;;;;61.17;22.73;;;;;;;7.74;100.00;99757.94;5096455;28;20371;-61
2024/03/04 04:08:48;;;;;;;61.80;23.95;;;;;;;7.77;100.00;99757.66;5089013;28;20059;-61
2024/03/04 04:11:14;;;;;;;66.13;23.70;;;;;;;7.67;100.00;99757.69;5096647;28;20069;-61
2024/03/04 04:13:40;;;;;;;64.35;24.98;;;;;;;7.58;100.00;99761.19;5094922;28;20241;-61
2024/03/04 04:16:06;;;;;;;57.95;22.63;;;;;;;7.40;100.00;99763.72;5096420;28;20031;-61
2024/03/04 04:18:31;;;;;;;58.55;22.20;;;;;;;7.25;100.00;99754.56;5095726;28;20057;-61
2024/03/04 04:20:57;;;;;;;64.05;22.88;;;;;;;7.47;100.00;99761.34;5095905;28;20032;-64
2024/03/04 04:23:22;;;;;;;57.72;23.42;;;;;;;7.47;100.00;99750.81;5095062;28;20039;-61
2024/03/04 04:25:50;;;;;;;77.80;22.80;;;;;;;7.17;100.00;99747.34;5095310;28;20043;-61
2024/03/04 04:28:16;;;;;;;68.18;24.17;;;;;;;7.31;100.00;99746.13;5094033;28;20390;-60
2024/03/04 04:30:43;;;;;;;61.60;23.17;;;;;;;7.46;100.00;99754.41;5094551;28;20031;-61
2024/03/04 04:33:08;;;;;;;66.63;21.48;;;;;;;7.18;100.00;99750.81;5111172;28;20028;-62
2024/03/04 04:35:34;;;;;;;70.07;22.15;;;;;;;7.02;100.00;99746.94;5094753;28;20402;-63
2024/03/04 04:38:00;;;;;;;71.60;23.27;;;;;;;7.15;100.00;99751.94;5095742;28;20070;-61
2024/03/04 04:40:26;;;;;;;64.57;22.50;;;;;;;7.13;100.00;99755.66;5094727;28;20175;-61
2024/03/04 04:42:51;;;;;;;69.93;24.55;;;;;;;7.22;100.00;99747.75;5094406;28;20032;-61
2024/03/04 04:45:17;;;;;;;87.40;22.65;;;;;;;7.26;100.00;99757.03;5093794;28;20051;-61
2024/03/04 04:47:43;;;;;;;72.10;24.70;;;;;;;7.21;100.00;99759.25;5095955;28;20036;-61
2024/03/04 04:50:10;;;;;;;58.60;21.08;;;;;;;7.22;100.00;99749.56;5093671;28;20036;-63
2024/03/04 04:52:36;;;;;;;50.50;19.05;;;;;;;7.08;100.00;99756.09;5095823;28;20040;-61
2024/03/04 04:55:01;;;;;;;75.78;23.20;;;;;;;6.99;100.00;99755.13;5094892;28;20070;-61
2024/03/04 04:57:27;;;;;;;61.65;21.63;;;;;;;7.01;100.00;99754.97;5095835;28;20032;-62
2024/03/04 04:59:52;;;;;;;60.47;22.27;;;;;;;7.02;100.00;99762.75;5095668;28;20035;-61
2024/03/04 05:02:18;;;;;;;72.40;21.42;;;;;;;6.98;100.00;99766.63;5093608;28;20347;-61
2024/03/04 05:04:44;;;;;;;69.35;23.75;;;;;;;6.96;100.00;99765.94;5095421;28;20028;-62
2024/03/04 05:07:09;;;;;;;88.35;25.65;;;;;;;7.09;100.00;99773.56;5094349;28;20088;-61
2024/03/04 05:09:35;;;;;;;57.35;20.25;;;;;;;6.83;100.00;99778.53;5095490;28;20047;-61
2024/03/04 05:12:00;;;;;;;107.63;25.15;;;;;;;6.88;100.00;99778.13;5093626;28;20039;-61
2024/03/04 05:14:26;;;;;;;67.60;20.45;;;;;;;6.88;100.00;99792.13;5095330;28;20349;-61
2024/03/04 05:16:51;;;;;;;76.35;22.08;;;;;;;6.91;100.00;99796.28;5095178;28;20145;-63
2024/03/04 05:19:17;;;;;;;65.47;22.23;;;;;;;6.71;100.00;99800.69;5095175;28;20347;-61
2024/03/04 05:21:43;;;;;;;76.40;20.48;;;;;;;6.59;100.00;99799.97;5094984;28;20036;-61
2024/03/04 05:24:09;;;;;;;75.38;21.08;;;;;;;6.80;100.00;99807.75;5094545;28;20198;-62
2024/03/04 05:26:34;;;;;;;91.30;23.85;;;;;;;6.90;100.00;99805.13;5093890;28;20363;-61
2024/03/04 05:29:00;;;;;;;72.35;22.52;;;;;;;6.82;100.00;99813.72;5094866;28;20043;-61
2024/03/04 05:31:25;;;;;;;66.22;23.23;;;;;;;6.96;100.00;99809.84;5095944;28;20305;-61
2024/03/04 05:33:51;;;;;;;74.13;22.23;;;;;;;7.00;100.00;99806.81;5093554;28;20047;-62
2024/03/04 05:36:17;;;;;;;62.42;20.83;;;;;;;7.07;100.00;99806.25;5095304;28;20040;-62
2024/03/04 05:38:42;;;;;;;72.53;23.50;;;;;;;7.01;100.00;99813.72;5094401;28;20082;-61
2024/03/04 05:41:10;;;;;;;63.72;23.58;;;;;;;6.92;100.00;99822.44;5096946;28;20032;-60
2024/03/04 05:43:36;;;;;;;72.57;26.42;;;;;;;7.12;100.00;99822.47;5098434;28;20031;-61
2024/03/04 05:46:01;;;;;;;67.30;22.33;;;;;;;6.86;100.00;99796.69;5098670;28;20241;-62
2024/03/04 05:48:27;;;;;;;70.43;23.25;;;;;;;7.09;100.00;99817.47;5098907;28;20043;-63
2024/03/04 05:50:52;;;;;;;65.15;22.95;;;;;;;7.14;100.00;99829.25;5098375;28;20051;-60
2024/03/04 05:53:20;;;;;;;63.22;22.45;;;;;;;7.27;100.00;99832.44;5098696;28;20310;-60
2024/03/04 05:55:45;;;;;;;59.70;23.42;;;;;;;7.18;100.00;99827.19;5097548;28;20082;-61
2024/03/04 05:58:11;;;;;;;69.38;24.67;;;;;;;7.16;100.00;99831.75;5097900;28;20036;-61
2024/03/04 06:00:36;;;;;;;62.17;22.20;;;;;;;7.03;100.00;99832.03;5097825;28;20104;-60
2024/03/04 06:03:02;;;;;;;53.42;20.83;;;;;;;7.08;100.00;99828.97;5097490;28;20028;-60
2024/03/04 06:05:27;;;;;;;53.33;21.45;;;;;;;7.02;100.00;99833.81;5097837;28;20102;-62
2024/03/04 06:07:57;;;;;;;58.22;22.13;;;;;;;7.05;100.00;99833.56;5097478;28;20085;-63
2024/03/04 06:10:23;;;;;;;53.22;20.02;;;;;;;7.10;100.00;99840.22;5097283;28;20044;-61
2024/03/04 06:12:48;;;;;;;51.72;20.67;;;;;;;7.11;100.00;99834.81;5099340;28;20264;-61
2024/03/04 06:15:14;;;;;;;52.53;20.25;;;;;;;7.01;100.00;99834.78;5097176;28;20028;-61
2024/03/04 06:17:39;;;;;;;57.83;22.00;;;;;;;7.00;100.00;99835.75;5099313;28;20036;-64
2024/03/04 06:20:09;;;;;;;58.10;22.60;;;;;;;7.02;100.00;99819.84;5105445;28;20061;-64
2024/03/04 06:22:36;;;;;;;53.50;23.02;;;;;;;6.89;100.00;99838.53;5098535;28;20244;-62
2024/03/04 06:25:01;;;;;;;48.60;19.23;;;;;;;6.99;100.00;99839.38;5097866;28;20039;-62
2024/03/04 06:27:27;;;;;;;59.17;22.23;;;;;;;6.98;100.00;99840.34;5098277;28;20859;-63
2024/03/04 06:29:52;;;;;;;57.05;22.15;;;;;;;6.97;100.00;99830.78;5098449;28;20062;-62
2024/03/04 06:32:18;;;;;;;57.20;22.08;;;;;;;7.03;100.00;99834.66;5098433;28;20086;-63
2024/03/04 06:34:43;;;;;;;60.40;22.55;;;;;;;7.05;100.00;99827.44;5097958;28;20044;-63
2024/03/04 06:37:11;;;;;;;55.58;22.85;;;;;;;7.05;100.00;99827.44;5097749;28;20313;-61
2024/03/04 06:39:36;;;;;;;65.07;23.98;;;;;;;7.19;100.00;99826.22;5099525;28;20219;-62
2024/03/04 06:42:02;;;;;;;62.55;24.20;;;;;;;7.29;100.00;99814.75;5098429;28;20044;-61
2024/03/04 06:44:28;;;;;;;76.95;27.20;;;;;;;7.52;100.00;99811.81;5098963;28;20032;-62
2024/03/04 06:46:53;;;;;;;69.28;27.10;;;;;;;7.47;100.00;99811.41;5097150;28;20055;-61
2024/03/04 06:49:19;;;;;;;56.42;22.30;;;;;;;7.52;100.00;99811.81;5098884;28;20390;-62
2024/03/04 06:51:44;;;;;;;62.10;22.77;;;;;;;7.65;100.00;99820.25;5096961;28;20107;-61
2024/03/04 06:54:10;;;;;;;65.75;24.55;;;;;;;7.61;100.00;99816.22;5098162;28;20034;-63
2024/03/04 06:56:36;;;;;;;62.10;24.25;;;;;;;7.60;100.00;99801.38;5097840;28;20055;-63
2024/03/04 06:59:02;;;;;;;65.95;25.02;;;;;;;7.76;100.00;99821.88;5098491;28;20046;-60
2024/03/04 07:01:28;;;;;;;59.30;24.80;;;;;;;7.68;100.00;99826.06;5097213;28;20253;-62
2024/03/04 07:03:55;;;;;;;53.22;22.27;;;;;;;7.79;100.00;99827.72;5097327;28;20023;-61
2024/03/04 07:06:23;;;;;;;51.92;20.92;;;;;;;7.80;100.00;99826.72;5096043;28;20032;-62
2024/03/04 07:08:49;;;;;;;57.42;24.45;;;;;;;8.02;100.00;99836.09;5096232;28;20134;-62
2024/03/04 07:11:17;;;;;;;50.20;20.88;;;;;;;8.30;100.00;99831.72;5095979;28;20431;-61
2024/03/04 07:13:43;;;;;;;53.90;24.15;;;;;;;8.14;100.00;99818.31;5096874;28;20039;-61
2024/03/04 07:16:12;;;;;;;46.95;20.60;;;;;;;8.07;100.00;99833.88;5097012;28;20032;-61
2024/03/04 07:18:38;;;;;;;48.90;21.17;;;;;;;7.75;100.00;99831.59;5096238;28;20023;-63
2024/03/04 07:21:05;;;;;;;46.22;18.98;;;;;;;7.63;100.00;99838.84;5097160;28;20905;-60
2024/03/04 07:23:31;;;;;;;45.58;18.92;;;;;;;7.74;100.00;99839.66;5096146;28;20035;-61
2024/03/04 07:25:56;;;;;;;51.53;20.85;;;;;;;7.76;100.00;99840.34;5097040;28;20043;-61
2024/03/04 07:28:22;;;;;;;49.33;21.38;;;;;;;7.89;100.00;99832.97;5095229;28;20105;-61
2024/03/04 07:30:51;;;;;;;49.97;19.88;;;;;;;7.96;100.00;99834.88;5096814;28;20340;-61
2024/03/04 07:33:16;;;;;;;45.15;20.08;;;;;;;7.99;100.00;99833.75;5095509;28;20277;-61
2024/03/04 07:35:42;;;;;;;49.67;19.50;;;;;;;8.11;100.00;99837.88;5096082;28;20032;-61
2024/03/04 07:38:08;;;;;;;50.70;18.92;;;;;;;8.05;100.00;99832.34;5095431;28;20036;-63
2024/03/04 07:40:33;;;;;;;44.28;19.60;;;;;;;7.96;100.00;99831.41;5096783;28;20036;-62
2024/03/04 07:43:00;;;;;;;50.65;21.38;;;;;;;8.10;100.00;99843.31;5096539;28;20238;-62
2024/03/04 07:45:26;;;;;;;48.53;19.60;;;;;;;8.17;100.00;99845.22;5095906;28;20098;-62
2024/03/04 07:47:51;;;;;;;43.47;19.05;;;;;;;8.22;100.00;99839.50;5092888;28;20063;-62
2024/03/04 07:50:17;;;;;;;52.88;21.65;;;;;;;8.45;100.00;99850.59;5095272;28;20097;-63
2024/03/04 07:52:42;;;;;;;43.20;19.52;;;;;;;8.35;100.00;99841.88;5096716;28;20337;-63
2024/03/04 07:55:09;;;;;;;45.92;18.63;;;;;;;8.44;100.00;99839.19;5095870;28;20039;-62
2024/03/04 07:57:35;;;;;;;42.15;18.20;;;;;;;8.61;100.00;99834.94;5096649;28;20067;-62
2024/03/04 08:00:03;;;;;;;47.70;20.17;;;;;;;8.60;100.00;99836.75;5096734;28;20253;-62
2024/03/04 08:02:28;;;;;;;40.35;18.33;;;;;;;8.52;100.00;99846.38;5095604;28;20124;-64
2024/03/04 08:04:54;;;;;;;40.53;17.50;;;;;;;8.64;100.00;99838.13;5095672;28;20028;-63
2024/03/04 08:07:19;;;;;;;46.03;18.88;;;;;;;8.56;100.00;99840.66;5096123;28;20409;-61
2024/03/04 08:09:45;;;;;;;47.28;19.58;;;;;;;8.62;100.00;99836.63;5096619;28;20036;-61
2024/03/04 08:12:13;;;;;;;43.15;18.33;;;;;;;8.75;100.00;99836.25;5096186;28;20028;-63
2024/03/04 08:14:40;;;;;;;40.17;19.63;;;;;;;8.64;100.00;99842.56;5096028;28;20031;-63
2024/03/04 08:17:06;;;;;;;46.80;20.88;;;;;;;8.58;100.00;99835.25;5096231;28;20065;-61
2024/03/04 08:19:31;;;;;;;45.40;20.33;;;;;;;8.65;100.00;99838.97;5096042;28;20328;-63
2024/03/04 08:21:57;;;;;;;38.83;17.77;;;;;;;8.81;100.00;99825.09;5095566;28;20334;-63
2024/03/04 08:24:22;;;;;;;36.53;15.88;;;;;;;8.92;100.00;99835.47;5096204;28;20039;-65
2024/03/04 08:26:48;;;;;;;36.88;17.95;;;;;;;9.04;100.00;99828.97;5096448;28;20250;-64
2024/03/04 08:29:13;;;;;;;41.08;18.45;;;;;;;9.25;100.00;99831.31;5096400;28;20035;-60
2024/03/04 08:31:39;;;;;;;37.50;15.25;;;;;;;9.17;100.00;99825.97;5096319;28;20046;-61
2024/03/04 08:34:04;;;;;;;38.17;17.52;;;;;;;9.28;100.00;99823.94;5095556;28;20069;-62
2024/03/04 08:36:31;;;;;;;39.60;17.75;;;;;;;9.30;100.00;99829.06;5095909;28;20329;-64
2024/03/04 08:38:56;;;;;;;36.50;17.80;;;;;;;9.29;100.00;99825.59;5095688;28;20039;-64
2024/03/04 08:41:24;;;;;;;38.70;16.98;;;;;;;9.34;100.00;99824.28;5095683;28;20036;-62
2024/03/04 08:43:50;;;;;;;38.17;16.63;;;;;;;9.38;100.00;99818.59;5095562;28;20078;-63
2024/03/04 08:46:15;;;;;;;36.78;16.48;;;;;;;9.46;100.00;99812.53;5095524;28;20052;-60
2024/03/04 08:48:41;;;;;;;33.20;17.88;;;;;;;9.66;100.00;99819.31;5093265;28;20247;-63
2024/03/04 08:51:07;;;;;;;37.97;17.63;;;;;;;9.79;100.00;99814.44;5095376;28;20130;-63
2024/03/04 08:53:33;;;;;;;39.85;18.45;;;;;;;9.71;100.00;99817.03;5096326;28;20245;-61
2024/03/04 08:55:59;;;;;;;31.30;15.45;;;;;;;9.78;100.00;99823.34;5095484;28;20337;-62
2024/03/04 08:58:24;;;;;;;38.35;17.90;;;;;;;9.90;100.00;99827.41;5095627;28;20048;-64
2024/03/04 09:00:49;;;;;;;34.33;16.77;;;;;;;9.95;100.00;99808.41;5096246;28;21066;-64
2024/03/04 09:03:15;;;;;;;40.60;18.73;;;;;;;9.85;100.00;99810.34;5094982;28;20185;-62
2024/03/04 09:05:43;;;;;;;43.08;19.33;;;;;;;10.06;100.00;99808.16;5094813;28;20047;-62
2024/03/04 09:08:08;;;;;;;40.63;19.48;;;;;;;10.25;100.00;99799.19;5095486;28;20044;-62
2024/03/04 09:10:34;;;;;;;36.10;17.77;;;;;;;10.21;100.00;99796.03;5095339;28;20051;-64
2024/03/04 09:13:01;;;;;;;36.42;19.15;;;;;;;10.40;100.00;99796.75;5095177;28;20047;-63
2024/03/04 09:15:27;;;;;;;44.63;21.25;;;;;;;10.44;100.00;99801.59;5095897;28;20128;-63
2024/03/04 09:17:52;;;;;;;38.88;19.25;;;;;;;10.40;100.00;99799.41;5098875;28;20439;-62
2024/03/04 09:20:18;;;;;;;41.70;17.00;;;;;;;10.28;100.00;99796.22;5099428;28;20035;-63
2024/03/04 09:22:44;;;;;;;41.20;20.05;;;;;;;10.21;100.00;99801.31;5099305;28;20024;-62
2024/03/04 09:25:09;;;;;;;40.90;19.70;;;;;;;10.39;100.00;99793.28;5099118;28;20300;-62
2024/03/04 09:27:36;;;;;;;46.35;20.92;;;;;;;10.20;100.00;99801.47;5098671;28;20036;-62
2024/03/04 09:30:04;;;;;;;43.95;20.70;;;;;;;10.21;100.00;99796.03;5100257;28;20055;-63
2024/03/04 09:32:30;;;;;;;39.15;19.40;;;;;;;10.35;100.00;99799.88;5099127;28;20040;-64
2024/03/04 09:34:57;;;;;;;41.30;19.35;;;;;;;10.51;100.00;99796.50;5097330;28;20099;-64
2024/03/04 09:37:23;;;;;;;46.55;22.60;;;;;;;10.66;100.00;99791.41;5097251;28;20035;-62
2024/03/04 09:39:49;;;;;;;42.13;21.08;;;;;;;10.63;100.00;99774.03;5099304;28;20393;-62
2024/03/04 09:42:17;;;;;;;46.97;21.70;;;;;;;10.62;100.00;99777.66;5099417;28;20044;-62
2024/03/04 09:44:43;;;;;;;44.22;20.52;;;;;;;10.65;100.00;99771.22;5098840;28;20234;-64
2024/03/04 09:47:09;;;;;;;41.22;21.25;;;;;;;10.72;100.00;99766.94;5098704;28;20081;-64
2024/03/04 09:49:38;;;;;;;45.38;21.92;;;;;;;10.88;100.00;99762.50;5098710;28;20035;-62
2024/03/04 09:52:04;;;;;;;44.17;22.58;;;;;;;10.90;100.00;99762.31;5098271;28;20051;-62
2024/03/04 09:54:35;;;;;;;49.47;23.15;;;;;;;10.79;100.00;99758.16;5099243;28;20226;-62
2024/03/04 09:57:01;;;;;;;55.65;25.20;;;;;;;10.86;100.00;99763.66;5097358;28;20348;-63
2024/03/04 09:59:26;;;;;;;47.15;22.85;;;;;;;11.06;100.00;99762.34;5098261;28;20071;-63
2024/03/04 10:01:53;;;;;;;52.85;23.98;;;;;;;10.78;100.00;99764.47;5098533;28;20076;-61
2024/03/04 10:04:21;;;;;;;52.15;24.45;;;;;;;10.87;100.00;99760.00;5104998;28;20212;-63
2024/03/04 10:06:46;;;;;;;53.13;23.73;;;;;;;11.10;100.00;99760.19;5104123;28;20085;-64
2024/03/04 10:09:12;;;;;;;53.75;24.95;;;;;;;11.26;100.00;99760.19;5098353;28;20297;-63
2024/03/04 10:11:42;;;;;;;47.13;22.67;;;;;;;11.24;100.00;99764.00;5098271;28;20208;-62
2024/03/04 10:14:08;;;;;;;45.00;20.92;;;;;;;11.09;100.00;99755.88;5097028;28;20035;-62
2024/03/04 10:16:36;;;;;;;49.13;22.38;;;;;;;11.13;100.00;99760.69;5098583;28;20213;-62
2024/03/04 10:19:03;;;;;;;50.03;24.20;;;;;;;11.15;100.00;99748.09;5098317;28;20051;-63
2024/03/04 10:21:36;;;;;;;52.03;25.02;;;;;;;11.26;100.00;99741.63;5098110;28;20115;-60
2024/03/04 10:24:10;;;;;;;53.83;25.45;;;;;;;11.36;100.00;99744.94;5098224;28;20329;-63
2024/03/04 10:26:42;;;;;;;50.17;24.58;;;;;;;11.38;100.00;99745.59;5097386;28;20040;-62
2024/03/04 10:29:09;;;;;;;47.30;22.67;;;;;;;11.34;100.00;99744.28;5110768;28;20122;-63
2024/03/04 10:31:37;;;;;;;50.50;22.58;;;;;;;11.49;100.00;99733.84;5098692;28;20106;-62
2024/03/04 10:34:03;;;;;;;50.88;22.58;;;;;;;11.38;100.00;99737.66;5098059;28;20288;-62
2024/03/04 10:36:31;;;;;;;49.13;22.38;;;;;;;11.55;100.00;99733.19;5098003;28;20043;-62
2024/03/04 10:38:57;;;;;;;47.53;21.85;;;;;;;11.63;100.00;99721.72;5098208;28;20032;-65
2024/03/04 10:41:32;;;;;;;42.63;20.10;;;;;;;11.85;100.00;99725.53;5097904;28;20032;-65
2024/03/04 10:43:58;;;;;;;46.75;20.67;;;;;;;11.81;100.00;99728.50;5098043;28;20034;-63
2024/03/04 10:46:25;;;;;;;42.22;19.88;;;;;;;11.89;100.00;99718.88;5097624;28;20109;-62
2024/03/04 10:48:52;;;;;;;38.25;18.83;;;;;;;12.03;100.00;99719.00;5097750;28;20044;-63
2024/03/04 10:51:20;;;;;;;42.38;19.33;;;;;;;12.21;100.00;99712.59;5094411;28;20036;-64
2024/03/04 10:53:46;;;;;;;36.22;18.45;;;;;;;12.29;100.00;99707.25;5097650;28;20044;-63
2024/03/04 10:56:16;;;;;;;39.38;20.70;;;;;;;12.51;100.00;99705.66;5097490;28;20207;-63
2024/03/04 10:58:43;;;;;;;30.85;16.55;;;;;;;12.47;100.00;99702.50;5097957;28;20259;-60
2024/03/04 11:01:13;;;;;;;20.83;12.43;;;;;;;12.47;100.00;99713.13;5097965;28;20035;-63
2024/03/04 11:03:43;;;;;;;22.63;12.23;;;;;;;12.47;100.00;99698.03;5097526;28;20035;-63
2024/03/04 11:06:12;;;;;;;25.73;13.13;;;;;;;12.51;100.00;99697.69;5096879;28;20032;-62
2024/03/04 11:08:47;;;;;;;20.25;11.30;;;;;;;12.39;100.00;99697.25;5097303;28;20397;-62
2024/03/04 11:11:16;;;;;;;26.75;13.65;;;;;;;12.51;100.00;99682.59;5097412;28;20055;-62